createdAt,value
2023-02-01T00:00:42.113Z,10.40
2023-02-01T00:03:11.107Z,10.03
2023-02-01T00:05:39.112Z,9.83
2023-02-01T00:08:06.996Z,9.37
2023-02-01T00:10:36.252Z,9.53
2023-02-01T00:13:04.215Z,8.37
2023-02-01T00:15:32.257Z,9.03
2023-02-01T00:18:03.137Z,8.60
2023-02-01T00:20:31.041Z,8.47
2023-02-01T00:22:58.956Z,8.50
2023-02-01T00:25:26.873Z,7.53
2023-02-01T00:27:57.859Z,7.93
2023-02-01T00:30:25.778Z,8.10
2023-02-01T00:32:53.727Z,8.13
2023-02-01T00:35:21.616Z,7.87
2023-02-01T00:37:49.594Z,6.70
2023-02-01T00:40:17.872Z,6.07
2023-02-01T00:42:45.788Z,6.03
2023-02-01T00:45:15.101Z,5.53
2023-02-01T00:47:43.163Z,5.53
2023-02-01T00:50:12.167Z,4.83
2023-02-01T00:52:40.078Z,4.60
2023-02-01T00:55:08.694Z,4.20
2023-02-01T00:57:36.557Z,4.37
2023-02-01T01:00:05.372Z,3.83
2023-02-01T01:02:34.644Z,4.20
2023-02-01T01:05:02.624Z,3.03
2023-02-01T01:07:30.531Z,3.67
2023-02-01T01:09:58.479Z,3.00
2023-02-01T01:12:26.546Z,3.13
2023-02-01T01:14:54.559Z,3.50
2023-02-01T01:17:22.544Z,3.97
2023-02-01T01:19:52.564Z,3.17
2023-02-01T01:22:20.503Z,2.97
2023-02-01T01:24:48.474Z,2.60
2023-02-01T01:27:23.757Z,3.03
2023-02-01T01:29:51.768Z,2.80
2023-02-01T01:32:19.749Z,2.60
2023-02-01T01:34:47.687Z,3.90
2023-02-01T01:37:17.082Z,4.00
2023-02-01T01:39:45.048Z,2.77
2023-02-01T01:42:14.158Z,2.47
2023-02-01T01:45:00.929Z,3.17
2023-02-01T01:47:35.106Z,2.93
2023-02-01T01:50:04.234Z,2.70
2023-02-01T01:52:34.280Z,2.90
2023-02-01T01:55:03.439Z,2.63
2023-02-01T01:57:35.206Z,2.80
2023-02-01T02:00:09.045Z,2.50
2023-02-01T02:02:44.675Z,2.50
2023-02-01T02:05:13.549Z,3.40
2023-02-01T02:07:48.188Z,3.07
2023-02-01T02:10:17.251Z,3.20
2023-02-01T02:12:49.600Z,3.23
2023-02-01T02:15:18.982Z,2.63
2023-02-01T02:17:56.242Z,3.00
2023-02-01T02:20:50.968Z,3.13
2023-02-01T02:23:47.280Z,3.00
2023-02-01T02:26:36.893Z,3.03
2023-02-01T02:29:44.512Z,3.30
2023-02-01T02:32:49.502Z,3.00
2023-02-01T02:35:28.781Z,3.07
2023-02-01T02:38:07.530Z,4.00
2023-02-01T02:40:43.218Z,3.80
2023-02-01T02:43:35.678Z,3.10
2023-02-01T02:46:27.273Z,2.70
2023-02-01T02:49:02.857Z,3.10
2023-02-01T02:51:56.355Z,3.47
2023-02-01T02:54:45.176Z,2.97
2023-02-01T02:57:35.103Z,3.03
2023-02-01T03:00:26.084Z,3.00
2023-02-01T03:03:12.427Z,2.80
2023-02-01T03:05:45.420Z,3.57
2023-02-01T03:08:17.124Z,3.20
2023-02-01T03:10:59.514Z,3.03
2023-02-01T03:13:36.671Z,3.17
2023-02-01T03:16:14.397Z,2.70
2023-02-01T03:18:50.939Z,3.10
2023-02-01T03:21:23.700Z,2.57
2023-02-01T03:23:54.651Z,3.50
2023-02-01T03:26:25.793Z,2.77
2023-02-01T03:28:59.428Z,2.37
2023-02-01T03:31:29.457Z,2.77
2023-02-01T03:33:58.037Z,2.80
2023-02-01T03:36:32.237Z,2.70
2023-02-01T03:39:07.399Z,3.17
2023-02-01T03:41:40.483Z,2.83
2023-02-01T03:44:14.547Z,2.57
2023-02-01T03:46:49.494Z,2.90
2023-02-01T03:49:22.764Z,2.77
2023-02-01T03:51:53.156Z,3.10
2023-02-01T03:54:23.127Z,2.80
2023-02-01T03:56:53.621Z,2.67
2023-02-01T03:59:21.646Z,2.87
2023-02-01T04:01:49.844Z,3.13
2023-02-01T04:04:21.718Z,2.73
2023-02-01T04:06:53.741Z,2.90
2023-02-01T04:09:23.769Z,2.70
2023-02-01T04:11:51.675Z,2.90
2023-02-01T04:14:19.651Z,2.97
2023-02-01T04:16:47.656Z,2.77
2023-02-01T04:19:15.623Z,3.10
2023-02-01T04:21:43.562Z,2.60
2023-02-01T04:24:11.639Z,3.30
2023-02-01T04:26:41.339Z,2.70
2023-02-01T04:29:11.026Z,2.87
2023-02-01T04:31:39.147Z,2.70
2023-02-01T04:34:07.215Z,3.20
2023-02-01T04:36:35.148Z,2.83
2023-02-01T04:39:03.216Z,2.97
2023-02-01T04:41:31.134Z,2.77
2023-02-01T04:44:00.401Z,2.97
2023-02-01T04:46:28.405Z,2.57
2023-02-01T04:48:56.499Z,2.97
2023-02-01T04:51:24.511Z,2.43
2023-02-01T04:53:52.451Z,2.90
2023-02-01T04:56:20.372Z,3.23
2023-02-01T04:58:48.248Z,2.87
2023-02-01T05:01:17.542Z,3.07
2023-02-01T05:03:45.527Z,3.10
2023-02-01T05:06:13.525Z,3.10
2023-02-01T05:08:41.605Z,2.30
2023-02-01T05:11:29.560Z,2.90
2023-02-01T05:13:56.569Z,2.97
2023-02-01T05:16:26.225Z,2.97
2023-02-01T05:18:54.581Z,3.07
2023-02-01T05:21:23.046Z,2.57
2023-02-01T05:24:08.673Z,3.00
2023-02-01T05:26:36.917Z,2.60
2023-02-01T05:29:05.208Z,2.70
2023-02-01T05:31:34.717Z,2.30
2023-02-01T05:34:02.830Z,2.53
2023-02-01T05:36:30.872Z,2.30
2023-02-01T05:38:58.813Z,2.60
2023-02-01T05:41:26.851Z,2.70
2023-02-01T05:43:54.804Z,3.03
2023-02-01T05:46:22.823Z,3.10
2023-02-01T05:48:52.109Z,3.20
2023-02-01T05:51:20.021Z,2.87
2023-02-01T05:53:48.033Z,2.87
2023-02-01T05:56:15.970Z,3.40
2023-02-01T05:58:43.868Z,3.40
2023-02-01T06:01:11.813Z,2.70
2023-02-01T06:03:39.997Z,3.10
2023-02-01T06:06:09.424Z,2.70
2023-02-01T06:08:37.348Z,2.83
2023-02-01T06:11:06.880Z,3.33
2023-02-01T06:13:35.464Z,2.50
2023-02-01T06:16:04.278Z,2.57
2023-02-01T06:18:32.615Z,2.73
2023-02-01T06:21:01.890Z,2.57
2023-02-01T06:23:32.136Z,3.13
2023-02-01T06:26:03.619Z,2.80
2023-02-01T06:28:32.582Z,2.63
2023-02-01T06:31:04.802Z,2.90
2023-02-01T06:33:34.150Z,2.87
2023-02-01T06:36:05.215Z,2.90
2023-02-01T06:38:35.719Z,2.60
2023-02-01T06:41:04.574Z,2.80
2023-02-01T06:43:33.999Z,2.97
2023-02-01T06:46:03.613Z,3.40
2023-02-01T06:48:31.677Z,3.37
2023-02-01T06:50:59.690Z,2.87
2023-02-01T06:53:28.224Z,3.13
2023-02-01T06:55:59.432Z,2.80
2023-02-01T06:58:30.440Z,2.90
2023-02-01T07:00:58.491Z,2.73
2023-02-01T07:03:26.499Z,2.83
2023-02-01T07:05:57.791Z,2.80
2023-02-01T07:08:25.898Z,2.30
2023-02-01T07:10:54.110Z,3.27
2023-02-01T07:13:23.371Z,2.87
2023-02-01T07:15:51.486Z,3.47
2023-02-01T07:18:19.440Z,3.37
2023-02-01T07:20:52.157Z,2.80
2023-02-01T07:23:20.216Z,2.60
2023-02-01T07:25:48.207Z,3.30
2023-02-01T07:28:16.485Z,2.90
2023-02-01T07:30:51.654Z,3.33
2023-02-01T07:33:21.410Z,2.97
2023-02-01T07:35:49.879Z,3.20
2023-02-01T07:38:18.160Z,3.30
2023-02-01T07:40:46.108Z,3.60
2023-02-01T07:43:14.019Z,3.43
2023-02-01T07:45:41.976Z,3.37
2023-02-01T07:48:11.328Z,4.50
2023-02-01T07:50:39.237Z,4.17
2023-02-01T07:53:07.181Z,3.60
2023-02-01T07:55:35.851Z,3.20
2023-02-01T07:58:03.760Z,3.37
2023-02-01T08:00:49.235Z,3.43
2023-02-01T08:03:18.717Z,4.00
2023-02-01T08:05:46.640Z,3.10
2023-02-01T08:08:14.647Z,3.37
2023-02-01T08:10:42.816Z,3.60
2023-02-01T08:13:11.117Z,3.60
2023-02-01T08:15:39.132Z,3.40
2023-02-01T08:18:07.262Z,3.97
2023-02-01T08:20:37.247Z,4.07
2023-02-01T08:23:05.314Z,3.47
2023-02-01T08:25:33.214Z,3.30
2023-02-01T08:28:01.230Z,4.23
2023-02-01T08:30:29.255Z,4.70
2023-02-01T08:32:57.399Z,5.03
2023-02-01T08:35:37.978Z,4.87
2023-02-01T08:38:12.180Z,6.00
2023-02-01T08:40:42.346Z,4.77
2023-02-01T08:43:10.334Z,4.47
2023-02-01T08:45:38.656Z,5.27
2023-02-01T08:48:07.568Z,4.03
2023-02-01T08:50:35.511Z,3.87
2023-02-01T08:53:03.442Z,3.97
2023-02-01T08:55:32.960Z,4.33
2023-02-01T08:58:00.925Z,3.50
2023-02-01T09:00:28.934Z,3.63
2023-02-01T09:02:58.404Z,7.37
2023-02-01T09:05:29.550Z,5.37
2023-02-01T09:08:03.366Z,5.63
2023-02-01T09:10:35.423Z,6.00
2023-02-01T09:13:04.160Z,4.13
2023-02-01T09:15:32.283Z,4.50
2023-02-01T09:18:00.320Z,4.20
2023-02-01T09:20:28.543Z,4.03
2023-02-01T09:22:57.446Z,4.43
2023-02-01T09:25:25.746Z,3.77
2023-02-01T09:27:55.051Z,4.03
2023-02-01T09:30:23.350Z,4.67
2023-02-01T09:32:51.430Z,4.20
2023-02-01T09:35:19.422Z,3.83
2023-02-01T09:37:47.360Z,4.10
2023-02-01T09:40:17.352Z,4.17
2023-02-01T09:42:57.505Z,4.40
2023-02-01T09:45:34.422Z,3.87
2023-02-01T09:48:05.274Z,3.33
2023-02-01T09:50:38.374Z,3.30
2023-02-01T09:53:11.400Z,3.30
2023-02-01T09:55:44.633Z,3.83
2023-02-01T09:58:19.679Z,3.30
2023-02-01T10:00:53.763Z,3.60
2023-02-01T10:03:22.533Z,2.93
2023-02-01T10:06:13.794Z,3.17
2023-02-01T10:08:58.215Z,3.23
2023-02-01T10:11:49.318Z,3.60
2023-02-01T10:14:45.436Z,2.90
2023-02-01T10:17:22.124Z,3.07
2023-02-01T10:19:59.048Z,5.00
2023-02-01T10:23:00.379Z,3.70
2023-02-01T10:25:34.358Z,3.87
2023-02-01T10:28:03.991Z,3.90
2023-02-01T10:30:40.237Z,5.60
2023-02-01T10:33:18.272Z,4.73
2023-02-01T10:35:47.975Z,3.60
2023-02-01T10:38:23.473Z,3.17
2023-02-01T10:40:52.488Z,3.20
2023-02-01T10:43:20.478Z,3.43
2023-02-01T10:45:49.805Z,3.97
2023-02-01T10:48:17.908Z,3.73
2023-02-01T10:50:52.262Z,3.83
2023-02-01T10:53:26.328Z,3.87
2023-02-01T10:55:55.636Z,3.67
2023-02-01T10:58:29.060Z,4.47
2023-02-01T11:01:03.883Z,3.77
2023-02-01T11:03:38.875Z,3.47
2023-02-01T11:06:25.242Z,3.30
2023-02-01T11:08:55.167Z,3.37
2023-02-01T11:11:24.040Z,2.77
2023-02-01T11:13:58.035Z,2.90
2023-02-01T11:16:35.455Z,3.50
2023-02-01T11:19:03.953Z,3.30
2023-02-01T11:21:32.539Z,3.00
2023-02-01T11:24:04.775Z,3.20
2023-02-01T11:26:34.064Z,3.00
2023-02-01T11:29:05.904Z,4.10
2023-02-01T11:31:36.829Z,4.90
2023-02-01T11:34:11.199Z,3.97
2023-02-01T11:36:41.122Z,2.80
2023-02-01T11:39:22.200Z,3.47
2023-02-01T11:42:01.955Z,3.90
2023-02-01T11:44:35.302Z,4.50
2023-02-01T11:47:26.628Z,3.50
2023-02-01T11:49:56.293Z,3.40
2023-02-01T11:52:41.655Z,3.30
2023-02-01T11:55:48.227Z,3.40
2023-02-01T11:58:30.968Z,3.80
2023-02-01T12:01:13.657Z,3.63
2023-02-01T12:04:03.306Z,3.30
2023-02-01T12:06:41.472Z,3.43
2023-02-01T12:09:22.574Z,3.30
2023-02-01T12:12:01.630Z,3.27
2023-02-01T12:14:58.679Z,3.70
2023-02-01T12:17:46.903Z,4.20
2023-02-01T12:20:31.099Z,4.50
2023-02-01T12:23:17.242Z,3.90
2023-02-01T12:26:02.475Z,4.20
2023-02-01T12:28:55.776Z,5.57
2023-02-01T12:31:48.557Z,3.90
2023-02-01T12:34:57.551Z,3.93
2023-02-01T12:37:45.395Z,3.83
2023-02-01T12:40:24.388Z,3.87
2023-02-01T12:43:01.286Z,4.03
2023-02-01T12:45:35.255Z,4.07
2023-02-01T12:48:13.805Z,4.47
2023-02-01T12:50:47.004Z,4.03
2023-02-01T12:53:22.792Z,4.63
2023-02-01T12:55:54.200Z,3.70
2023-02-01T12:58:28.052Z,3.80
2023-02-01T13:01:02.453Z,4.20
2023-02-01T13:03:58.875Z,3.73
2023-02-01T13:06:30.507Z,3.57
2023-02-01T13:09:10.003Z,5.83
2023-02-01T13:11:40.588Z,4.87
2023-02-01T13:14:19.746Z,3.67
2023-02-01T13:16:51.317Z,4.13
2023-02-01T13:19:23.587Z,3.67
2023-02-01T13:21:57.510Z,3.30
2023-02-01T13:24:43.393Z,3.27
2023-02-01T13:27:14.466Z,3.10
2023-02-01T13:29:51.742Z,3.30
2023-02-01T13:33:51.598Z,3.07
2023-02-01T13:35:51.972Z,4.03
2023-02-01T13:38:47.952Z,5.00
2023-02-01T13:41:28.932Z,7.70
2023-02-01T13:44:00.123Z,7.10
2023-02-01T13:46:29.481Z,6.50
2023-02-01T13:49:01.193Z,3.13
2023-02-01T13:51:39.173Z,4.73
2023-02-01T13:54:07.881Z,3.60
2023-02-01T13:56:45.210Z,3.77
2023-02-01T13:59:50.127Z,4.00
2023-02-01T14:02:48.395Z,3.87
2023-02-01T14:05:59.839Z,3.07
2023-02-01T14:08:41.096Z,3.67
2023-02-01T14:11:36.920Z,3.73
2023-02-01T14:14:44.555Z,5.17
2023-02-01T14:17:38.333Z,4.23
2023-02-01T14:20:54.247Z,5.37
2023-02-01T14:23:33.966Z,4.30
2023-02-01T14:26:21.286Z,3.27
2023-02-01T14:29:03.442Z,4.80
2023-02-01T14:31:50.541Z,4.93
2023-02-01T14:34:32.521Z,4.00
2023-02-01T14:37:02.838Z,3.33
2023-02-01T14:39:35.640Z,4.60
2023-02-01T14:42:07.202Z,4.40
2023-02-01T14:44:38.270Z,3.63
2023-02-01T14:47:12.138Z,3.70
2023-02-01T14:49:50.963Z,4.50
2023-02-01T14:52:22.524Z,5.50
2023-02-01T14:54:55.208Z,4.17
2023-02-01T14:57:28.905Z,3.73
2023-02-01T15:00:06.816Z,3.17
2023-02-01T15:02:39.739Z,3.50
2023-02-01T15:05:33.677Z,3.00
2023-02-01T15:08:07.633Z,4.73
2023-02-01T15:10:44.044Z,4.07
2023-02-01T15:13:22.049Z,3.73
2023-02-01T15:16:04.693Z,4.23
2023-02-01T15:18:32.966Z,4.03
2023-02-01T15:21:09.470Z,3.67
2023-02-01T15:23:52.221Z,4.10
2023-02-01T15:26:30.895Z,4.57
2023-02-01T15:28:59.641Z,2.90
2023-02-01T15:31:36.447Z,3.77
2023-02-01T15:34:05.436Z,3.67
2023-02-01T15:36:36.322Z,4.90
2023-02-01T15:39:23.916Z,4.50
2023-02-01T15:41:54.764Z,4.13
2023-02-01T15:44:36.573Z,3.40
2023-02-01T15:47:15.059Z,3.50
2023-02-01T15:49:45.431Z,3.33
2023-02-01T15:52:25.665Z,3.30
2023-02-01T15:54:56.983Z,3.43
2023-02-01T15:57:31.641Z,3.57
2023-02-01T16:00:11.214Z,3.37
2023-02-01T16:02:45.973Z,6.03
2023-02-01T16:05:33.168Z,4.67
2023-02-01T16:08:08.983Z,5.10
2023-02-01T16:10:42.381Z,4.73
2023-02-01T16:13:10.407Z,3.60
2023-02-01T16:15:38.694Z,4.43
2023-02-01T16:18:08.737Z,3.97
2023-02-01T16:20:37.117Z,4.43
2023-02-01T16:23:07.239Z,4.50
2023-02-01T16:25:35.801Z,5.90
2023-02-01T16:28:05.030Z,4.10
2023-02-01T16:30:33.636Z,5.20
2023-02-01T16:33:05.854Z,3.77
2023-02-01T16:35:37.323Z,4.40
2023-02-01T16:38:09.717Z,4.80
2023-02-01T16:40:37.893Z,4.50
2023-02-01T16:43:14.136Z,4.30
2023-02-01T16:45:43.394Z,4.07
2023-02-01T16:48:20.993Z,4.33
2023-02-01T16:50:51.455Z,5.43
2023-02-01T16:53:21.555Z,5.90
2023-02-01T16:55:50.458Z,4.93
2023-02-01T16:58:18.686Z,9.57
2023-02-01T17:00:49.007Z,6.80
2023-02-01T17:03:18.342Z,5.30
2023-02-01T17:05:49.342Z,5.40
2023-02-01T17:08:20.905Z,6.63
2023-02-01T17:10:48.929Z,5.57
2023-02-01T17:13:18.156Z,4.30
2023-02-01T17:15:51.121Z,7.00
2023-02-01T17:18:20.064Z,4.50
2023-02-01T17:20:48.624Z,5.83
2023-02-01T17:23:17.112Z,4.40
2023-02-01T17:25:48.413Z,5.00
2023-02-01T17:28:16.436Z,4.50
2023-02-01T17:30:44.709Z,4.37
2023-02-01T17:33:22.625Z,5.10
2023-02-01T17:35:54.236Z,5.23
2023-02-01T17:38:22.629Z,4.47
2023-02-01T17:40:52.563Z,5.60
2023-02-01T17:43:23.236Z,6.33
2023-02-01T17:45:53.723Z,4.47
2023-02-01T17:48:22.767Z,5.77
2023-02-01T17:50:54.628Z,6.13
2023-02-01T17:53:24.566Z,7.20
2023-02-01T17:55:54.182Z,6.67
2023-02-01T17:58:22.797Z,5.70
2023-02-01T18:00:51.588Z,6.20
2023-02-01T18:03:24.895Z,6.13
2023-02-01T18:05:54.428Z,4.93
2023-02-01T18:08:23.402Z,6.03
2023-02-01T18:10:55.352Z,5.87
2023-02-01T18:13:23.491Z,6.40
2023-02-01T18:15:51.483Z,7.43
2023-02-01T18:18:19.396Z,6.93
2023-02-01T18:20:49.286Z,7.20
2023-02-01T18:23:19.163Z,7.50
2023-02-01T18:25:48.123Z,7.03
2023-02-01T18:28:18.285Z,7.70
2023-02-01T18:30:48.429Z,7.57
2023-02-01T18:33:19.711Z,7.37
2023-02-01T18:35:48.306Z,6.87
2023-02-01T18:38:16.692Z,8.10
2023-02-01T18:40:51.325Z,7.87
2023-02-01T18:43:21.347Z,7.57
2023-02-01T18:45:51.161Z,7.37
2023-02-01T18:48:22.114Z,8.00
2023-02-01T18:50:51.859Z,7.57
2023-02-01T18:53:23.977Z,7.30
2023-02-01T18:55:52.927Z,7.07
2023-02-01T18:58:26.209Z,7.73
2023-02-01T19:00:55.152Z,6.47
2023-02-01T19:03:26.645Z,5.30
2023-02-01T19:05:56.744Z,6.87
2023-02-01T19:08:25.643Z,6.03
2023-02-01T19:10:54.501Z,7.50
2023-02-01T19:13:26.743Z,6.37
2023-02-01T19:15:55.096Z,8.37
2023-02-01T19:18:23.142Z,5.40
2023-02-01T19:20:51.736Z,6.60
2023-02-01T19:23:20.259Z,6.87
2023-02-01T19:25:49.906Z,7.47
2023-02-01T19:28:18.147Z,7.67
2023-02-01T19:30:47.545Z,7.13
2023-02-01T19:33:16.678Z,6.77
2023-02-01T19:35:44.717Z,5.67
2023-02-01T19:38:12.682Z,5.87
2023-02-01T19:40:41.887Z,6.83
2023-02-01T19:43:10.275Z,6.67
2023-02-01T19:45:38.269Z,6.20
2023-02-01T19:48:08.258Z,5.77
2023-02-01T19:50:36.322Z,6.70
2023-02-01T19:53:04.469Z,6.20
2023-02-01T19:55:32.800Z,6.27
2023-02-01T19:58:02.494Z,6.30
2023-02-01T20:00:30.122Z,6.80
2023-02-01T20:02:58.603Z,7.00
2023-02-01T20:05:28.199Z,7.47
2023-02-01T20:07:56.371Z,7.40
2023-02-01T20:10:24.808Z,6.73
2023-02-01T20:12:52.809Z,6.30
2023-02-01T20:15:22.608Z,6.20
2023-02-01T20:17:51.031Z,6.10
2023-02-01T20:20:19.463Z,6.17
2023-02-01T20:22:49.016Z,6.20
2023-02-01T20:25:17.151Z,7.50
2023-02-01T20:27:46.207Z,7.37
2023-02-01T20:30:19.843Z,6.87
2023-02-01T20:32:49.571Z,6.60
2023-02-01T20:35:18.338Z,8.30
2023-02-01T20:37:47.011Z,7.73
2023-02-01T20:40:16.769Z,7.97
2023-02-01T20:42:44.954Z,8.63
2023-02-01T20:45:13.162Z,8.30
2023-02-01T20:47:42.247Z,7.70
2023-02-01T20:50:11.817Z,8.57
2023-02-01T20:52:40.019Z,8.53
2023-02-01T20:55:08.843Z,7.17
2023-02-01T20:57:38.312Z,7.97
2023-02-01T21:00:10.023Z,7.53
2023-02-01T21:02:38.177Z,7.03
2023-02-01T21:05:06.984Z,6.87
2023-02-01T21:07:34.910Z,6.53
2023-02-01T21:10:03.215Z,7.13
2023-02-01T21:12:31.316Z,7.27
2023-02-01T21:15:00.866Z,8.30
2023-02-01T21:17:31.212Z,8.90
2023-02-01T21:19:59.534Z,8.10
2023-02-01T21:22:27.872Z,8.23
2023-02-01T21:24:55.857Z,7.53
2023-02-01T21:27:24.280Z,7.30
2023-02-01T21:29:52.332Z,8.07
2023-02-01T21:32:21.767Z,7.40
2023-02-01T21:34:49.910Z,6.93
2023-02-01T21:37:17.881Z,7.10
2023-02-01T21:39:46.085Z,7.50
2023-02-01T21:42:18.374Z,7.53
2023-02-01T21:44:47.524Z,6.57
2023-02-01T21:47:17.834Z,7.23
2023-02-01T21:49:48.950Z,7.07
2023-02-01T21:52:18.213Z,8.27
2023-02-01T21:54:46.543Z,9.57
2023-02-01T21:57:14.466Z,8.97
2023-02-01T21:59:43.690Z,9.93
2023-02-01T22:02:13.916Z,7.63
2023-02-01T22:04:42.243Z,8.57
2023-02-01T22:07:12.243Z,8.20
2023-02-01T22:09:40.860Z,7.47
2023-02-01T22:12:10.695Z,9.33
2023-02-01T22:14:38.677Z,8.33
2023-02-01T22:17:06.632Z,8.53
2023-02-01T22:19:35.735Z,7.33
2023-02-01T22:22:03.775Z,8.23
2023-02-01T22:24:34.581Z,8.80
2023-02-01T22:27:14.096Z,8.00
2023-02-01T22:29:43.504Z,7.93
2023-02-01T22:32:13.766Z,8.20
2023-02-01T22:34:42.144Z,8.30
2023-02-01T22:37:11.300Z,8.27
2023-02-01T22:39:41.689Z,8.90
2023-02-01T22:42:09.769Z,8.87
2023-02-01T22:44:37.738Z,8.27
2023-02-01T22:47:05.811Z,8.83
2023-02-01T22:49:33.742Z,8.03
2023-02-01T22:52:01.698Z,8.40
2023-02-01T22:54:29.588Z,7.77
2023-02-01T22:57:00.164Z,8.33
2023-02-01T22:59:28.161Z,8.37
2023-02-01T23:01:56.081Z,8.17
2023-02-01T23:04:24.020Z,8.50
2023-02-01T23:06:52.615Z,8.83
2023-02-01T23:09:22.629Z,8.77
2023-02-01T23:11:50.862Z,7.73
2023-02-01T23:14:20.463Z,8.43
2023-02-01T23:16:50.065Z,7.77
2023-02-01T23:19:20.392Z,7.80
2023-02-01T23:21:48.538Z,7.67
2023-02-01T23:24:16.578Z,7.37
2023-02-01T23:26:44.578Z,7.47
2023-02-01T23:29:18.612Z,7.73
2023-02-01T23:31:48.180Z,7.77
2023-02-01T23:34:16.125Z,6.93
2023-02-01T23:36:44.040Z,8.40
2023-02-01T23:39:11.976Z,8.47
2023-02-01T23:41:39.913Z,8.93
2023-02-01T23:44:07.824Z,7.90
2023-02-01T23:46:38.003Z,8.30
2023-02-01T23:49:09.140Z,8.67
2023-02-01T23:51:37.466Z,8.83
2023-02-01T23:54:05.885Z,8.93
2023-02-01T23:56:35.874Z,8.80
2023-02-01T23:59:05.397Z,8.07
